sensor_id;sensor_type;location;lat;lon;timestamp;P1;durP1;ratioP1;P2;durP2;ratioP2
39188;SDS011;24915;50.858;4.376;2023-01-29T00:00:08;72.03;;;36.80;;
39188;SDS011;24915;50.858;4.376;2023-01-29T00:02:36;71.50;;;36.28;;
39188;SDS011;24915;50.858;4.376;2023-01-29T00:05:02;64.03;;;35.00;;
39188;SDS011;24915;50.858;4.376;2023-01-29T00:07:29;70.25;;;35.67;;
39188;SDS011;24915;50.858;4.376;2023-01-29T00:09:55;65.65;;;36.17;;
39188;SDS011;24915;50.858;4.376;2023-01-29T00:12:21;71.65;;;34.53;;
39188;SDS011;24915;50.858;4.376;2023-01-29T00:14:46;68.95;;;36.80;;
39188;SDS011;24915;50.858;4.376;2023-01-29T00:17:12;73.10;;;35.78;;
39188;SDS011;24915;50.858;4.376;2023-01-29T00:19:38;71.55;;;36.65;;
39188;SDS011;24915;50.858;4.376;2023-01-29T00:22:03;68.32;;;36.10;;
39188;SDS011;24915;50.858;4.376;2023-01-29T00:24:31;76.75;;;38.33;;
39188;SDS011;24915;50.858;4.376;2023-01-29T00:26:57;72.95;;;39.67;;
39188;SDS011;24915;50.858;4.376;2023-01-29T00:29:22;73.05;;;38.22;;
39188;SDS011;24915;50.858;4.376;2023-01-29T00:31:48;80.63;;;39.17;;
39188;SDS011;24915;50.858;4.376;2023-01-29T00:34:16;74.25;;;38.35;;
39188;SDS011;24915;50.858;4.376;2023-01-29T00:36:44;75.53;;;37.75;;
39188;SDS011;24915;50.858;4.376;2023-01-29T00:39:10;74.88;;;39.33;;
39188;SDS011;24915;50.858;4.376;2023-01-29T00:41:36;70.78;;;37.38;;
39188;SDS011;24915;50.858;4.376;2023-01-29T00:44:20;67.68;;;36.90;;
39188;SDS011;24915;50.858;4.376;2023-01-29T00:47:24;55.92;;;28.92;;
39188;SDS011;24915;50.858;4.376;2023-01-29T00:49:58;71.43;;;36.28;;
39188;SDS011;24915;50.858;4.376;2023-01-29T00:52:24;73.35;;;37.97;;
39188;SDS011;24915;50.858;4.376;2023-01-29T00:54:54;68.43;;;35.92;;
39188;SDS011;24915;50.858;4.376;2023-01-29T00:57:22;72.03;;;37.15;;
39188;SDS011;24915;50.858;4.376;2023-01-29T00:59:48;70.90;;;37.03;;
39188;SDS011;24915;50.858;4.376;2023-01-29T01:02:14;68.55;;;36.22;;
39188;SDS011;24915;50.858;4.376;2023-01-29T01:04:59;72.10;;;37.13;;
39188;SDS011;24915;50.858;4.376;2023-01-29T01:07:26;67.85;;;35.05;;
39188;SDS011;24915;50.858;4.376;2023-01-29T01:09:56;69.38;;;36.10;;
39188;SDS011;24915;50.858;4.376;2023-01-29T01:12:40;69.18;;;35.78;;
39188;SDS011;24915;50.858;4.376;2023-01-29T01:15:05;70.88;;;35.47;;
39188;SDS011;24915;50.858;4.376;2023-01-29T01:17:31;66.05;;;34.35;;
39188;SDS011;24915;50.858;4.376;2023-01-29T01:19:57;66.03;;;34.70;;
39188;SDS011;24915;50.858;4.376;2023-01-29T01:22:23;70.15;;;35.20;;
39188;SDS011;24915;50.858;4.376;2023-01-29T01:24:48;71.85;;;35.78;;
39188;SDS011;24915;50.858;4.376;2023-01-29T01:27:14;70.22;;;35.85;;
39188;SDS011;24915;50.858;4.376;2023-01-29T01:29:40;65.55;;;33.95;;
39188;SDS011;24915;50.858;4.376;2023-01-29T01:32:07;69.40;;;34.85;;
39188;SDS011;24915;50.858;4.376;2023-01-29T01:34:32;68.07;;;34.08;;
39188;SDS011;24915;50.858;4.376;2023-01-29T01:36:58;66.93;;;35.40;;
39188;SDS011;24915;50.858;4.376;2023-01-29T01:39:24;67.22;;;33.10;;
39188;SDS011;24915;50.858;4.376;2023-01-29T01:41:50;64.90;;;34.63;;
39188;SDS011;24915;50.858;4.376;2023-01-29T01:47:25;65.95;;;33.20;;
39188;SDS011;24915;50.858;4.376;2023-01-29T01:49:54;71.72;;;36.03;;
39188;SDS011;24915;50.858;4.376;2023-01-29T01:52:26;72.18;;;34.13;;
39188;SDS011;24915;50.858;4.376;2023-01-29T01:54:55;71.53;;;35.22;;
39188;SDS011;24915;50.858;4.376;2023-01-29T01:57:22;68.78;;;34.47;;
39188;SDS011;24915;50.858;4.376;2023-01-29T01:59:52;66.75;;;35.50;;
39188;SDS011;24915;50.858;4.376;2023-01-29T02:02:21;69.20;;;35.33;;
39188;SDS011;24915;50.858;4.376;2023-01-29T02:05:06;70.65;;;36.30;;
39188;SDS011;24915;50.858;4.376;2023-01-29T02:07:52;75.07;;;36.15;;
39188;SDS011;24915;50.858;4.376;2023-01-29T02:10:46;75.78;;;36.47;;
39188;SDS011;24915;50.858;4.376;2023-01-29T02:13:13;71.68;;;37.35;;
39188;SDS011;24915;50.858;4.376;2023-01-29T02:15:41;70.60;;;36.78;;
39188;SDS011;24915;50.858;4.376;2023-01-29T02:18:10;72.18;;;36.45;;
39188;SDS011;24915;50.858;4.376;2023-01-29T02:20:38;72.13;;;36.95;;
39188;SDS011;24915;50.858;4.376;2023-01-29T02:28:53;74.97;;;37.38;;
39188;SDS011;24915;50.858;4.376;2023-01-29T02:31:50;75.97;;;37.67;;
39188;SDS011;24915;50.858;4.376;2023-01-29T02:34:20;78.80;;;38.88;;
39188;SDS011;24915;50.858;4.376;2023-01-29T02:42:15;79.38;;;38.80;;
39188;SDS011;24915;50.858;4.376;2023-01-29T02:44:51;76.85;;;38.88;;
39188;SDS011;24915;50.858;4.376;2023-01-29T02:50:19;76.35;;;38.90;;
39188;SDS011;24915;50.858;4.376;2023-01-29T02:52:57;79.07;;;40.15;;
39188;SDS011;24915;50.858;4.376;2023-01-29T02:55:34;76.13;;;38.22;;
39188;SDS011;24915;50.858;4.376;2023-01-29T03:01:14;77.25;;;39.05;;
39188;SDS011;24915;50.858;4.376;2023-01-29T03:03:50;72.30;;;38.42;;
39188;SDS011;24915;50.858;4.376;2023-01-29T03:09:01;81.30;;;39.22;;
39188;SDS011;24915;50.858;4.376;2023-01-29T03:11:34;80.03;;;37.88;;
39188;SDS011;24915;50.858;4.376;2023-01-29T03:14:29;78.57;;;39.85;;
39188;SDS011;24915;50.858;4.376;2023-01-29T03:17:23;76.07;;;38.55;;
39188;SDS011;24915;50.858;4.376;2023-01-29T03:19:53;70.72;;;37.45;;
39188;SDS011;24915;50.858;4.376;2023-01-29T03:22:18;72.60;;;37.88;;
39188;SDS011;24915;50.858;4.376;2023-01-29T03:24:54;75.97;;;36.60;;
39188;SDS011;24915;50.858;4.376;2023-01-29T03:30:27;75.97;;;38.53;;
39188;SDS011;24915;50.858;4.376;2023-01-29T03:33:13;81.93;;;38.50;;
39188;SDS011;24915;50.858;4.376;2023-01-29T03:35:46;75.85;;;38.53;;
39188;SDS011;24915;50.858;4.376;2023-01-29T03:38:17;76.40;;;37.08;;
39188;SDS011;24915;50.858;4.376;2023-01-29T03:46:09;73.05;;;37.45;;
39188;SDS011;24915;50.858;4.376;2023-01-29T03:51:32;77.35;;;38.20;;
39188;SDS011;24915;50.858;4.376;2023-01-29T03:56:58;79.72;;;38.28;;
39188;SDS011;24915;50.858;4.376;2023-01-29T03:59:35;78.43;;;38.10;;
39188;SDS011;24915;50.858;4.376;2023-01-29T04:02:06;79.80;;;39.85;;
39188;SDS011;24915;50.858;4.376;2023-01-29T04:04:40;78.57;;;37.75;;
39188;SDS011;24915;50.858;4.376;2023-01-29T04:07:10;76.50;;;37.30;;
39188;SDS011;24915;50.858;4.376;2023-01-29T04:12:17;78.15;;;36.75;;
39188;SDS011;24915;50.858;4.376;2023-01-29T04:14:50;71.95;;;37.40;;
39188;SDS011;24915;50.858;4.376;2023-01-29T04:17:20;74.50;;;37.53;;
39188;SDS011;24915;50.858;4.376;2023-01-29T04:19:49;81.90;;;39.17;;
39188;SDS011;24915;50.858;4.376;2023-01-29T04:22:19;77.70;;;38.05;;
39188;SDS011;24915;50.858;4.376;2023-01-29T04:24:50;76.35;;;37.03;;
39188;SDS011;24915;50.858;4.376;2023-01-29T04:27:19;75.15;;;36.85;;
39188;SDS011;24915;50.858;4.376;2023-01-29T04:32:53;72.57;;;35.78;;
39188;SDS011;24915;50.858;4.376;2023-01-29T04:38:22;73.65;;;36.20;;
39188;SDS011;24915;50.858;4.376;2023-01-29T04:43:58;78.05;;;37.35;;
39188;SDS011;24915;50.858;4.376;2023-01-29T04:57:18;75.63;;;37.15;;
39188;SDS011;24915;50.858;4.376;2023-01-29T05:02:37;78.50;;;37.90;;
39188;SDS011;24915;50.858;4.376;2023-01-29T05:05:05;79.60;;;38.20;;
39188;SDS011;24915;50.858;4.376;2023-01-29T05:07:32;79.93;;;37.65;;
39188;SDS011;24915;50.858;4.376;2023-01-29T05:10:02;71.72;;;35.20;;
39188;SDS011;24915;50.858;4.376;2023-01-29T05:12:30;79.97;;;37.25;;
39188;SDS011;24915;50.858;4.376;2023-01-29T05:14:56;78.85;;;38.58;;
39188;SDS011;24915;50.858;4.376;2023-01-29T05:17:26;80.72;;;38.47;;
39188;SDS011;24915;50.858;4.376;2023-01-29T05:19:52;82.10;;;38.80;;
39188;SDS011;24915;50.858;4.376;2023-01-29T05:22:20;84.75;;;39.15;;
39188;SDS011;24915;50.858;4.376;2023-01-29T05:24:47;84.00;;;40.63;;
39188;SDS011;24915;50.858;4.376;2023-01-29T05:27:16;84.22;;;39.80;;
39188;SDS011;24915;50.858;4.376;2023-01-29T05:30:03;83.35;;;39.05;;
39188;SDS011;24915;50.858;4.376;2023-01-29T05:32:30;78.90;;;38.33;;
39188;SDS011;24915;50.858;4.376;2023-01-29T05:34:55;82.25;;;40.17;;
39188;SDS011;24915;50.858;4.376;2023-01-29T05:37:21;87.68;;;40.22;;
39188;SDS011;24915;50.858;4.376;2023-01-29T05:39:47;77.43;;;39.08;;
39188;SDS011;24915;50.858;4.376;2023-01-29T05:42:12;77.55;;;39.78;;
39188;SDS011;24915;50.858;4.376;2023-01-29T05:44:38;84.55;;;39.67;;
39188;SDS011;24915;50.858;4.376;2023-01-29T05:47:03;80.40;;;39.55;;
39188;SDS011;24915;50.858;4.376;2023-01-29T05:49:30;82.10;;;38.03;;
39188;SDS011;24915;50.858;4.376;2023-01-29T05:51:55;88.80;;;40.55;;
39188;SDS011;24915;50.858;4.376;2023-01-29T05:54:21;82.30;;;39.35;;
39188;SDS011;24915;50.858;4.376;2023-01-29T05:56:46;84.22;;;40.63;;
39188;SDS011;24915;50.858;4.376;2023-01-29T05:59:13;82.25;;;39.53;;
39188;SDS011;24915;50.858;4.376;2023-01-29T06:01:40;78.78;;;38.95;;
39188;SDS011;24915;50.858;4.376;2023-01-29T06:04:05;77.85;;;39.00;;
39188;SDS011;24915;50.858;4.376;2023-01-29T06:06:31;79.82;;;38.92;;
39188;SDS011;24915;50.858;4.376;2023-01-29T06:08:57;74.53;;;37.28;;
39188;SDS011;24915;50.858;4.376;2023-01-29T06:11:22;84.20;;;40.17;;
39188;SDS011;24915;50.858;4.376;2023-01-29T06:13:48;81.40;;;39.45;;
39188;SDS011;24915;50.858;4.376;2023-01-29T06:16:14;81.75;;;40.30;;
39188;SDS011;24915;50.858;4.376;2023-01-29T06:18:40;84.10;;;41.22;;
39188;SDS011;24915;50.858;4.376;2023-01-29T06:21:07;83.78;;;41.67;;
39188;SDS011;24915;50.858;4.376;2023-01-29T06:23:36;84.32;;;39.67;;
39188;SDS011;24915;50.858;4.376;2023-01-29T06:26:02;85.13;;;41.13;;
39188;SDS011;24915;50.858;4.376;2023-01-29T06:28:30;77.53;;;38.28;;
39188;SDS011;24915;50.858;4.376;2023-01-29T06:30:56;79.53;;;38.33;;
39188;SDS011;24915;50.858;4.376;2023-01-29T06:33:23;84.30;;;40.30;;
39188;SDS011;24915;50.858;4.376;2023-01-29T06:35:49;83.68;;;40.47;;
39188;SDS011;24915;50.858;4.376;2023-01-29T06:38:20;84.70;;;40.78;;
39188;SDS011;24915;50.858;4.376;2023-01-29T06:40:46;90.03;;;41.53;;
39188;SDS011;24915;50.858;4.376;2023-01-29T06:43:11;83.90;;;41.08;;
39188;SDS011;24915;50.858;4.376;2023-01-29T06:45:37;77.97;;;39.42;;
39188;SDS011;24915;50.858;4.376;2023-01-29T06:48:09;69.60;;;31.43;;
39188;SDS011;24915;50.858;4.376;2023-01-29T06:50:35;80.05;;;39.55;;
39188;SDS011;24915;50.858;4.376;2023-01-29T06:53:01;83.20;;;40.53;;
39188;SDS011;24915;50.858;4.376;2023-01-29T06:55:27;85.65;;;41.08;;
39188;SDS011;24915;50.858;4.376;2023-01-29T06:57:53;84.68;;;40.40;;
39188;SDS011;24915;50.858;4.376;2023-01-29T07:00:18;83.82;;;39.63;;
39188;SDS011;24915;50.858;4.376;2023-01-29T07:02:47;79.15;;;39.80;;
39188;SDS011;24915;50.858;4.376;2023-01-29T07:05:13;92.63;;;42.35;;
39188;SDS011;24915;50.858;4.376;2023-01-29T07:07:39;82.88;;;41.78;;
39188;SDS011;24915;50.858;4.376;2023-01-29T07:10:05;84.32;;;41.63;;
39188;SDS011;24915;50.858;4.376;2023-01-29T07:12:32;96.18;;;43.33;;
39188;SDS011;24915;50.858;4.376;2023-01-29T07:14:58;86.90;;;42.53;;
39188;SDS011;24915;50.858;4.376;2023-01-29T07:17:23;80.53;;;42.15;;
39188;SDS011;24915;50.858;4.376;2023-01-29T07:19:49;83.22;;;40.92;;
39188;SDS011;24915;50.858;4.376;2023-01-29T07:22:14;81.35;;;40.15;;
39188;SDS011;24915;50.858;4.376;2023-01-29T07:24:40;80.28;;;40.22;;
39188;SDS011;24915;50.858;4.376;2023-01-29T07:27:06;81.13;;;40.53;;
39188;SDS011;24915;50.858;4.376;2023-01-29T07:29:32;77.57;;;38.70;;
39188;SDS011;24915;50.858;4.376;2023-01-29T07:31:58;78.28;;;39.15;;
39188;SDS011;24915;50.858;4.376;2023-01-29T07:34:23;86.57;;;40.22;;
39188;SDS011;24915;50.858;4.376;2023-01-29T07:36:51;72.80;;;38.15;;
39188;SDS011;24915;50.858;4.376;2023-01-29T07:39:17;77.20;;;38.75;;
39188;SDS011;24915;50.858;4.376;2023-01-29T07:41:43;74.97;;;38.55;;
39188;SDS011;24915;50.858;4.376;2023-01-29T07:44:09;74.60;;;36.22;;
39188;SDS011;24915;50.858;4.376;2023-01-29T07:46:34;75.20;;;35.60;;
39188;SDS011;24915;50.858;4.376;2023-01-29T07:49:00;72.10;;;34.67;;
39188;SDS011;24915;50.858;4.376;2023-01-29T07:51:26;69.57;;;35.33;;
39188;SDS011;24915;50.858;4.376;2023-01-29T07:53:51;69.30;;;34.88;;
39188;SDS011;24915;50.858;4.376;2023-01-29T07:56:17;73.85;;;36.30;;
39188;SDS011;24915;50.858;4.376;2023-01-29T07:58:43;68.95;;;34.80;;
39188;SDS011;24915;50.858;4.376;2023-01-29T08:01:09;69.78;;;35.22;;
39188;SDS011;24915;50.858;4.376;2023-01-29T08:03:34;68.15;;;34.03;;
39188;SDS011;24915;50.858;4.376;2023-01-29T08:06:01;66.78;;;34.60;;
39188;SDS011;24915;50.858;4.376;2023-01-29T08:08:27;67.15;;;33.95;;
39188;SDS011;24915;50.858;4.376;2023-01-29T08:10:53;70.13;;;34.25;;
39188;SDS011;24915;50.858;4.376;2023-01-29T08:13:19;69.82;;;34.95;;
39188;SDS011;24915;50.858;4.376;2023-01-29T08:15:44;71.40;;;34.60;;
39188;SDS011;24915;50.858;4.376;2023-01-29T08:18:10;69.38;;;34.38;;
39188;SDS011;24915;50.858;4.376;2023-01-29T08:20:37;68.25;;;34.10;;
39188;SDS011;24915;50.858;4.376;2023-01-29T08:23:03;63.70;;;31.90;;
39188;SDS011;24915;50.858;4.376;2023-01-29T08:25:31;68.18;;;33.70;;
39188;SDS011;24915;50.858;4.376;2023-01-29T08:27:57;64.00;;;33.75;;
39188;SDS011;24915;50.858;4.376;2023-01-29T08:30:25;61.25;;;30.85;;
39188;SDS011;24915;50.858;4.376;2023-01-29T08:32:52;64.57;;;32.65;;
39188;SDS011;24915;50.858;4.376;2023-01-29T08:35:17;60.35;;;30.58;;
39188;SDS011;24915;50.858;4.376;2023-01-29T08:37:43;69.18;;;33.03;;
39188;SDS011;24915;50.858;4.376;2023-01-29T08:40:09;60.17;;;30.73;;
39188;SDS011;24915;50.858;4.376;2023-01-29T08:42:37;62.38;;;31.88;;
39188;SDS011;24915;50.858;4.376;2023-01-29T08:45:04;67.40;;;32.88;;
39188;SDS011;24915;50.858;4.376;2023-01-29T08:47:30;57.95;;;29.50;;
39188;SDS011;24915;50.858;4.376;2023-01-29T08:49:56;61.53;;;31.92;;
39188;SDS011;24915;50.858;4.376;2023-01-29T08:52:22;63.47;;;30.92;;
39188;SDS011;24915;50.858;4.376;2023-01-29T08:54:47;66.20;;;31.50;;
39188;SDS011;24915;50.858;4.376;2023-01-29T08:57:13;59.78;;;30.98;;
39188;SDS011;24915;50.858;4.376;2023-01-29T08:59:39;61.55;;;31.40;;
39188;SDS011;24915;50.858;4.376;2023-01-29T09:02:04;66.10;;;32.92;;
39188;SDS011;24915;50.858;4.376;2023-01-29T09:04:30;61.97;;;31.90;;
39188;SDS011;24915;50.858;4.376;2023-01-29T09:06:55;59.97;;;31.00;;
39188;SDS011;24915;50.858;4.376;2023-01-29T09:09:21;64.40;;;32.75;;
39188;SDS011;24915;50.858;4.376;2023-01-29T09:11:46;69.90;;;35.17;;
39188;SDS011;24915;50.858;4.376;2023-01-29T09:14:12;61.22;;;31.95;;
39188;SDS011;24915;50.858;4.376;2023-01-29T09:16:38;65.90;;;33.33;;
39188;SDS011;24915;50.858;4.376;2023-01-29T09:19:04;68.70;;;34.75;;
39188;SDS011;24915;50.858;4.376;2023-01-29T09:21:30;57.88;;;31.33;;
39188;SDS011;24915;50.858;4.376;2023-01-29T09:23:55;60.53;;;32.10;;
39188;SDS011;24915;50.858;4.376;2023-01-29T09:26:21;63.42;;;32.85;;
39188;SDS011;24915;50.858;4.376;2023-01-29T09:28:47;55.83;;;30.00;;
39188;SDS011;24915;50.858;4.376;2023-01-29T09:31:12;61.97;;;31.95;;
39188;SDS011;24915;50.858;4.376;2023-01-29T09:33:38;87.47;;;42.55;;
39188;SDS011;24915;50.858;4.376;2023-01-29T09:36:04;97.72;;;45.10;;
39188;SDS011;24915;50.858;4.376;2023-01-29T09:38:30;92.43;;;43.72;;
39188;SDS011;24915;50.858;4.376;2023-01-29T09:40:58;120.57;;;53.47;;
39188;SDS011;24915;50.858;4.376;2023-01-29T09:43:42;144.07;;;60.47;;
39188;SDS011;24915;50.858;4.376;2023-01-29T09:46:14;69.60;;;35.47;;
39188;SDS011;24915;50.858;4.376;2023-01-29T09:49:22;80.88;;;38.47;;
39188;SDS011;24915;50.858;4.376;2023-01-29T09:52:36;83.43;;;39.10;;
39188;SDS011;24915;50.858;4.376;2023-01-29T09:57:53;65.32;;;32.88;;
39188;SDS011;24915;50.858;4.376;2023-01-29T10:00:27;83.53;;;41.85;;
39188;SDS011;24915;50.858;4.376;2023-01-29T10:03:14;105.53;;;49.65;;
39188;SDS011;24915;50.858;4.376;2023-01-29T10:08:17;111.05;;;48.25;;
39188;SDS011;24915;50.858;4.376;2023-01-29T10:10:50;194.32;;;77.68;;
39188;SDS011;24915;50.858;4.376;2023-01-29T10:16:47;136.98;;;61.03;;
39188;SDS011;24915;50.858;4.376;2023-01-29T10:22:04;157.20;;;70.22;;
39188;SDS011;24915;50.858;4.376;2023-01-29T10:25:02;77.28;;;37.78;;
39188;SDS011;24915;50.858;4.376;2023-01-29T10:27:34;161.60;;;70.07;;
39188;SDS011;24915;50.858;4.376;2023-01-29T10:30:05;89.50;;;42.33;;
39188;SDS011;24915;50.858;4.376;2023-01-29T10:32:45;97.82;;;46.42;;
39188;SDS011;24915;50.858;4.376;2023-01-29T10:37:41;61.50;;;30.35;;
39188;SDS011;24915;50.858;4.376;2023-01-29T10:43:22;53.08;;;28.85;;
39188;SDS011;24915;50.858;4.376;2023-01-29T10:46:06;68.80;;;32.40;;
39188;SDS011;24915;50.858;4.376;2023-01-29T10:59:54;58.03;;;30.77;;
39188;SDS011;24915;50.858;4.376;2023-01-29T11:02:44;55.13;;;28.98;;
39188;SDS011;24915;50.858;4.376;2023-01-29T11:07:44;55.17;;;29.10;;
39188;SDS011;24915;50.858;4.376;2023-01-29T11:10:12;58.38;;;29.27;;
39188;SDS011;24915;50.858;4.376;2023-01-29T11:12:41;62.30;;;32.65;;
39188;SDS011;24915;50.858;4.376;2023-01-29T11:18:03;63.58;;;30.73;;
39188;SDS011;24915;50.858;4.376;2023-01-29T11:20:39;60.72;;;29.95;;
39188;SDS011;24915;50.858;4.376;2023-01-29T11:23:19;55.22;;;29.08;;
39188;SDS011;24915;50.858;4.376;2023-01-29T11:25:51;50.47;;;27.05;;
39188;SDS011;24915;50.858;4.376;2023-01-29T11:28:33;58.38;;;29.17;;
39188;SDS011;24915;50.858;4.376;2023-01-29T11:33:44;60.60;;;30.17;;
39188;SDS011;24915;50.858;4.376;2023-01-29T11:36:21;52.30;;;28.90;;
39188;SDS011;24915;50.858;4.376;2023-01-29T11:39:28;50.08;;;26.30;;
39188;SDS011;24915;50.858;4.376;2023-01-29T11:41:48;51.10;;;27.42;;
39188;SDS011;24915;50.858;4.376;2023-01-29T11:47:19;55.42;;;27.05;;
39188;SDS011;24915;50.858;4.376;2023-01-29T11:49:59;45.72;;;24.67;;
39188;SDS011;24915;50.858;4.376;2023-01-29T11:52:33;47.13;;;24.77;;
39188;SDS011;24915;50.858;4.376;2023-01-29T11:55:02;45.97;;;24.20;;
39188;SDS011;24915;50.858;4.376;2023-01-29T11:57:38;44.42;;;23.27;;
39188;SDS011;24915;50.858;4.376;2023-01-29T12:02:52;44.95;;;22.77;;
39188;SDS011;24915;50.858;4.376;2023-01-29T12:05:37;45.35;;;22.98;;
39188;SDS011;24915;50.858;4.376;2023-01-29T12:08:09;46.53;;;23.27;;
39188;SDS011;24915;50.858;4.376;2023-01-29T12:10:41;38.83;;;22.02;;
39188;SDS011;24915;50.858;4.376;2023-01-29T12:15:44;40.97;;;20.50;;
39188;SDS011;24915;50.858;4.376;2023-01-29T12:20:41;40.10;;;20.10;;
39188;SDS011;24915;50.858;4.376;2023-01-29T12:26:04;43.17;;;22.90;;
39188;SDS011;24915;50.858;4.376;2023-01-29T12:31:34;46.25;;;23.90;;
39188;SDS011;24915;50.858;4.376;2023-01-29T12:36:58;44.50;;;22.77;;
39188;SDS011;24915;50.858;4.376;2023-01-29T12:39:33;44.30;;;24.05;;
39188;SDS011;24915;50.858;4.376;2023-01-29T12:44:36;36.85;;;20.10;;
39188;SDS011;24915;50.858;4.376;2023-01-29T12:47:36;40.78;;;20.60;;
39188;SDS011;24915;50.858;4.376;2023-01-29T12:50:27;39.88;;;20.15;;
39188;SDS011;24915;50.858;4.376;2023-01-29T12:55:56;39.10;;;21.42;;
39188;SDS011;24915;50.858;4.376;2023-01-29T12:58:31;44.72;;;21.98;;
39188;SDS011;24915;50.858;4.376;2023-01-29T13:01:14;42.17;;;21.88;;
39188;SDS011;24915;50.858;4.376;2023-01-29T13:03:51;38.40;;;22.58;;
39188;SDS011;24915;50.858;4.376;2023-01-29T13:06:35;41.33;;;22.08;;
39188;SDS011;24915;50.858;4.376;2023-01-29T13:09:11;40.97;;;22.40;;
39188;SDS011;24915;50.858;4.376;2023-01-29T13:11:44;42.47;;;21.85;;
39188;SDS011;24915;50.858;4.376;2023-01-29T13:14:30;39.78;;;20.63;;
39188;SDS011;24915;50.858;4.376;2023-01-29T13:17:21;33.45;;;19.15;;
39188;SDS011;24915;50.858;4.376;2023-01-29T13:23:01;34.00;;;18.60;;
39188;SDS011;24915;50.858;4.376;2023-01-29T13:25:36;36.10;;;19.08;;
39188;SDS011;24915;50.858;4.376;2023-01-29T13:28:02;45.42;;;22.77;;
39188;SDS011;24915;50.858;4.376;2023-01-29T13:30:29;35.80;;;19.50;;
39188;SDS011;24915;50.858;4.376;2023-01-29T13:32:57;35.85;;;20.30;;
39188;SDS011;24915;50.858;4.376;2023-01-29T13:35:34;39.15;;;19.95;;
39188;SDS011;24915;50.858;4.376;2023-01-29T13:38:02;34.08;;;19.05;;
39188;SDS011;24915;50.858;4.376;2023-01-29T13:40:29;33.35;;;18.50;;
39188;SDS011;24915;50.858;4.376;2023-01-29T13:42:58;38.42;;;18.75;;
39188;SDS011;24915;50.858;4.376;2023-01-29T13:45:33;35.42;;;18.05;;
39188;SDS011;24915;50.858;4.376;2023-01-29T13:48:16;34.08;;;19.45;;
39188;SDS011;24915;50.858;4.376;2023-01-29T13:50:45;34.03;;;17.70;;
39188;SDS011;24915;50.858;4.376;2023-01-29T13:53:19;35.72;;;17.52;;
39188;SDS011;24915;50.858;4.376;2023-01-29T13:55:50;35.40;;;18.25;;
39188;SDS011;24915;50.858;4.376;2023-01-29T14:00:58;30.77;;;17.33;;
39188;SDS011;24915;50.858;4.376;2023-01-29T14:13:37;39.25;;;19.67;;
39188;SDS011;24915;50.858;4.376;2023-01-29T14:18:29;32.35;;;19.27;;
39188;SDS011;24915;50.858;4.376;2023-01-29T14:21:06;35.88;;;19.45;;
39188;SDS011;24915;50.858;4.376;2023-01-29T14:23:52;37.63;;;19.42;;
39188;SDS011;24915;50.858;4.376;2023-01-29T14:26:39;33.50;;;18.60;;
39188;SDS011;24915;50.858;4.376;2023-01-29T14:29:17;40.88;;;19.45;;
39188;SDS011;24915;50.858;4.376;2023-01-29T14:34:18;35.42;;;19.95;;
39188;SDS011;24915;50.858;4.376;2023-01-29T14:36:48;39.72;;;20.85;;
39188;SDS011;24915;50.858;4.376;2023-01-29T14:39:41;36.83;;;20.65;;
39188;SDS011;24915;50.858;4.376;2023-01-29T14:42:24;35.85;;;20.23;;
39188;SDS011;24915;50.858;4.376;2023-01-29T14:52:43;41.92;;;23.65;;
39188;SDS011;24915;50.858;4.376;2023-01-29T14:55:16;39.95;;;22.42;;
39188;SDS011;24915;50.858;4.376;2023-01-29T14:58:03;40.83;;;22.88;;
39188;SDS011;24915;50.858;4.376;2023-01-29T15:00:33;41.90;;;23.73;;
39188;SDS011;24915;50.858;4.376;2023-01-29T15:03:11;51.40;;;24.83;;
39188;SDS011;24915;50.858;4.376;2023-01-29T15:05:41;45.50;;;25.15;;
39188;SDS011;24915;50.858;4.376;2023-01-29T15:10:55;48.53;;;24.85;;
39188;SDS011;24915;50.858;4.376;2023-01-29T15:13:55;50.30;;;26.08;;
39188;SDS011;24915;50.858;4.376;2023-01-29T15:16:31;53.70;;;27.57;;
39188;SDS011;24915;50.858;4.376;2023-01-29T15:19:07;49.42;;;26.95;;
39188;SDS011;24915;50.858;4.376;2023-01-29T15:22:00;56.50;;;28.55;;
39188;SDS011;24915;50.858;4.376;2023-01-29T15:24:26;52.42;;;26.80;;
39188;SDS011;24915;50.858;4.376;2023-01-29T15:26:52;54.38;;;28.77;;
39188;SDS011;24915;50.858;4.376;2023-01-29T15:29:21;55.92;;;29.63;;
39188;SDS011;24915;50.858;4.376;2023-01-29T15:31:48;54.83;;;29.23;;
39188;SDS011;24915;50.858;4.376;2023-01-29T15:34:13;56.47;;;28.38;;
39188;SDS011;24915;50.858;4.376;2023-01-29T15:36:39;55.88;;;30.00;;
39188;SDS011;24915;50.858;4.376;2023-01-29T15:39:14;58.40;;;29.60;;
39188;SDS011;24915;50.858;4.376;2023-01-29T15:41:46;57.13;;;30.75;;
39188;SDS011;24915;50.858;4.376;2023-01-29T15:44:14;59.60;;;29.70;;
39188;SDS011;24915;50.858;4.376;2023-01-29T15:46:46;56.97;;;30.90;;
39188;SDS011;24915;50.858;4.376;2023-01-29T15:49:27;56.45;;;30.58;;
39188;SDS011;24915;50.858;4.376;2023-01-29T15:51:56;58.15;;;29.98;;
39188;SDS011;24915;50.858;4.376;2023-01-29T15:54:24;57.45;;;29.73;;
39188;SDS011;24915;50.858;4.376;2023-01-29T15:56:57;45.20;;;22.95;;
39188;SDS011;24915;50.858;4.376;2023-01-29T15:59:25;61.35;;;30.02;;
39188;SDS011;24915;50.858;4.376;2023-01-29T16:01:54;57.53;;;30.55;;
39188;SDS011;24915;50.858;4.376;2023-01-29T16:04:24;62.53;;;30.58;;
39188;SDS011;24915;50.858;4.376;2023-01-29T16:06:52;59.45;;;30.70;;
39188;SDS011;24915;50.858;4.376;2023-01-29T16:09:20;61.83;;;31.40;;
39188;SDS011;24915;50.858;4.376;2023-01-29T16:11:48;58.97;;;29.90;;
39188;SDS011;24915;50.858;4.376;2023-01-29T16:14:15;53.25;;;29.23;;
39188;SDS011;24915;50.858;4.376;2023-01-29T16:16:45;57.30;;;30.33;;
39188;SDS011;24915;50.858;4.376;2023-01-29T16:19:45;51.97;;;27.95;;
39188;SDS011;24915;50.858;4.376;2023-01-29T16:22:04;59.97;;;31.80;;
39188;SDS011;24915;50.858;4.376;2023-01-29T16:24:31;62.63;;;29.13;;
39188;SDS011;24915;50.858;4.376;2023-01-29T16:27:01;55.38;;;29.10;;
39188;SDS011;24915;50.858;4.376;2023-01-29T16:29:37;61.17;;;27.80;;
39188;SDS011;24915;50.858;4.376;2023-01-29T16:32:04;54.17;;;26.25;;
39188;SDS011;24915;50.858;4.376;2023-01-29T16:34:35;49.60;;;26.55;;
39188;SDS011;24915;50.858;4.376;2023-01-29T16:37:06;56.00;;;27.52;;
39188;SDS011;24915;50.858;4.376;2023-01-29T16:39:42;51.30;;;27.65;;
39188;SDS011;24915;50.858;4.376;2023-01-29T16:44:38;63.55;;;27.70;;
39188;SDS011;24915;50.858;4.376;2023-01-29T16:47:10;55.90;;;27.35;;
39188;SDS011;24915;50.858;4.376;2023-01-29T16:52:14;55.67;;;27.85;;
39188;SDS011;24915;50.858;4.376;2023-01-29T16:54:42;54.88;;;27.60;;
39188;SDS011;24915;50.858;4.376;2023-01-29T16:57:12;57.40;;;29.70;;
39188;SDS011;24915;50.858;4.376;2023-01-29T16:59:45;59.50;;;30.17;;
39188;SDS011;24915;50.858;4.376;2023-01-29T17:02:27;57.03;;;30.30;;
39188;SDS011;24915;50.858;4.376;2023-01-29T17:04:58;58.53;;;29.20;;
39188;SDS011;24915;50.858;4.376;2023-01-29T17:07:27;58.92;;;30.08;;
39188;SDS011;24915;50.858;4.376;2023-01-29T17:09:55;55.33;;;29.55;;
39188;SDS011;24915;50.858;4.376;2023-01-29T17:12:24;62.67;;;30.70;;
39188;SDS011;24915;50.858;4.376;2023-01-29T17:14:52;61.47;;;31.25;;
39188;SDS011;24915;50.858;4.376;2023-01-29T17:17:19;58.08;;;30.08;;
39188;SDS011;24915;50.858;4.376;2023-01-29T17:19:45;67.82;;;31.85;;
39188;SDS011;24915;50.858;4.376;2023-01-29T17:22:11;61.15;;;32.25;;